North Petersburg, New York
Current Conditions -  °F | °C
As of 4:52 AM on Sunday 25 Jan 2015 (Local Time) from KAQW Reporting Station
Overcast Overcast  
Wind Chill: 24°   Ceiling: 1900
Heat Index: 33°   Visibility: 10mi
Dew Point: 26°   Wind: 13mph
Humidity: 75%   Direction: 270°W
Pressure: 29.44"   Gusts: 23mph
Location:  42.7192°N, 73.3641°W
Report Text: KAQW 250952Z AUTO 27011G20KT 10SM OVC019 01/M03 A2944 RMK AO2 SLP976 T00061033
Loading
Personal Weather Stations






























Interactive Weather Map New forecast layout! Learn more

10-Day Weather Forecast

Advertisements
Track Severe Weather on mobile